Buoy 46928

sailwx.info

Track history (hours):
 
Tides and Currents Weather Stations Pressure Air Temp Water Temp Dewpoint Dewpoint Depression Visibility Wind Speed Wind Dir Waves Ship Positions

Drifting buoy 46928

Last reported at 2014-Jul-28 06:30 UTC. Time now 2014-Jul-28 08:29 UTC.
Position N 47°54' W 157°26'.

Barometer 1023.5 mb
Water temperature 12.4 ° C

Date/timePositionNaut miles runAvg speedWind from/ knotsBaromVisibWave heightAir tempDewpointWater temp
2014-Jul-28 06:30N 47°54' W 157°26'1 0.3 1023.5 12.4
2014-Jul-28 03:30N 47°54' W 157°25'0 0.5 1022.6 12.4
2014-Jul-28 02:30N 47°54' W 157°25'0 0.0 1022.5 12.4
2014-Jul-28 01:30N 47°54' W 157°25'1 1.4 1022.5 12.4
2014-Jul-28 00:30N 47°55' W 157°23'2 1.6 1022.3 12.4
2014-Jul-27 23:30N 47°55' W 157°25'1 1.0 1022.5 12.4
2014-Jul-27 22:30N 47°55' W 157°26'1 0.3 1022.6 12.4
2014-Jul-27 19:30N 47°55' W 157°27'1 0.2 1022.5 12.3
2014-Jul-27 16:30N 47°54' W 157°28'0 0.2 1021.9 12.3
2014-Jul-27 15:30N 47°54' W 157°27'0 0.4 1021.7 12.3
2014-Jul-27 14:30N 47°54' W 157°27'1 0.9 1021.5 12.3
2014-Jul-27 13:30N 47°54' W 157°26'1 0.3 1021.4 12.3
2014-Jul-27 09:30N 47°55' W 157°26'0 0.2 1021.5 12.3
2014-Jul-27 08:30N 47°55' W 157°26'0 0.5 1021.7 12.3
2014-Jul-27 07:30N 47°55' W 157°26'0 0.3 1021.5 12.3
2014-Jul-27 06:30N 47°55' W 157°26'2 0.9 1021.0 12.3
2014-Jul-27 04:30N 47°55' W 157°28'1 0.2 1020.6 12.3
2014-Jul-27 01:30N 47°55' W 157°28'0 0.4 1020.8 12.4
2014-Jul-27 00:30N 47°56' W 157°27'1 0.4 1020.7 12.4
2014-Jul-26 22:30N 47°55' W 157°28'1 0.2 1020.7 12.3
2014-Jul-26 16:40N 47°55' W 157°27'1 0.9 850.0 -5.0
2014-Jul-26 15:30N 47°56' W 157°25'2 2.1 1019.9 12.1
2014-Jul-26 14:30N 47°56' W 157°28'1 0.8 1020.0 12.1
2014-Jul-26 13:30N 47°56' W 157°27'1 0.6 1019.9 12.1
2014-Jul-26 11:30N 47°56' W 157°29'1 0.2 1020.5 12.1
2014-Jul-26 07:30N 47°55' W 157°28'0 0.1 1020.8 12.2
2014-Jul-26 06:30N 47°55' W 157°28'1 0.5 1020.5 12.2
2014-Jul-26 03:30N 47°54' W 157°27'1 0.5 1020.4 12.2
2014-Jul-26 01:30N 47°55' W 157°26'1 0.7 1020.7 12.2
2014-Jul-26 00:30N 47°55' W 157°26'1 0.6 1021.0 12.2
2014-Jul-25 22:30N 47°57' W 157°26'1 0.7 1021.4 12.0
2014-Jul-25 21:30N 47°57' W 157°27'2 0.8 1021.5 12.0
2014-Jul-25 19:30N 47°56' W 157°29'0 0.0 1021.6 12.0
2014-Jul-25 18:30N 47°56' W 157°29'1 1.2 1021.8 12.0
2014-Jul-25 17:30N 47°55' W 157°30'1 0.5 1021.8 12.0
2014-Jul-25 15:30N 47°56' W 157°29'2 0.9 1022.1 12.0
2014-Jul-25 13:30N 47°55' W 157°27'3 1.4 1022.8 12.0
2014-Jul-25 11:30N 47°57' W 157°25'0 0.0 1023.4 12.0
2014-Jul-25 10:30N 47°57' W 157°25'0 0.1 1023.9 12.0
2014-Jul-25 08:30N 47°57' W 157°25'1 0.8 1024.2 12.0
2014-Jul-25 07:30N 47°58' W 157°26'1 0.4 1024.1 12.0
2014-Jul-25 03:30N 47°58' W 157°28'0 0.2 1025.0 12.1
2014-Jul-25 01:30N 47°58' W 157°27'0 0.0 1026.0 12.3
2014-Jul-25 00:30N 47°58' W 157°27'1 0.2 1026.4 12.3
2014-Jul-24 21:30N 47°58' W 157°27'1 0.4 1027.5 12.3
2014-Jul-24 19:30N 47°58' W 157°27'0 0.0 1028.1 12.3
2014-Jul-24 18:30N 47°58' W 157°27'1 1.0 1028.4 12.3
2014-Jul-24 17:30N 47°59' W 157°27'0 0.0 1028.7 12.3
2014-Jul-24 16:30N 47°59' W 157°27'0 0.2 1028.5 12.3
2014-Jul-24 14:30N 47°59' W 157°27'1 1.2 1029.0 12.4
2014-Jul-24 13:30N 47°59' W 157°28'1 0.6 1029.4 12.5
2014-Jul-24 11:30N 47°58' W 157°29'0 0.0 1030.0 12.6
2014-Jul-24 05:30N 47°58' W 157°29'1 0.4 1030.0 12.8
2014-Jul-24 02:30N 47°58' W 157°28'2 1.1 1030.0 12.8
2014-Jul-24 00:30N 47°59' W 157°26'0 0.1 1030.1 12.8
2014-Jul-23 23:30N 47°59' W 157°26'2 1.2 1030.5 12.8
2014-Jul-23 21:30N 48°01' W 157°28'2 0.4 1030.4 12.5
2014-Jul-23 16:30N 47°59' W 157°30'2 0.8 1029.5 12.4
2014-Jul-23 14:30N 47°58' W 157°29'1 1.0 1028.9 12.5
2014-Jul-23 13:30N 47°58' W 157°27'0 0.0 1028.8 12.5
2014-Jul-23 12:30N 47°58' W 157°27'3 0.5 1029.2 12.5
2014-Jul-23 07:30N 48°01' W 157°27'0 0.5 1029.9 12.7
2014-Jul-23 06:30N 48°01' W 157°27'1 0.7 1029.7 12.7
2014-Jul-23 04:30N 48°01' W 157°29'2 0.5 1029.7 12.7
2014-Jul-23 00:30N 47°59' W 157°29'1 0.6 1030.1 12.5
2014-Jul-22 23:30N 47°59' W 157°29'0 0.0 1030.2 12.4
2014-Jul-22 21:30N 47°59' W 157°29'1 1.1 1030.2 12.3
2014-Jul-22 20:30N 47°59' W 157°27'0 0.0 1029.9 12.2
2014-Jul-22 18:30N 47°59' W 157°27'0 0.2 1029.8 12.1
2014-Jul-22 16:30N 47°60' W 157°27'1 0.6 1029.0 12.0
2014-Jul-22 15:30N 47°60' W 157°28'1 0.3 1028.8 12.0
2014-Jul-22 13:30N 47°59' W 157°28'2 0.6 1028.1 12.1
2014-Jul-22 10:30N 47°60' W 157°31'2 0.2 1028.8 12.1
2014-Jul-22 03:30N 47°58' W 157°30'1 0.4 1028.0 12.3
2014-Jul-22 01:30N 47°59' W 157°29'3 0.6 1028.0 12.3
2014-Jul-21 20:30N 48°01' W 157°32'1 0.4 1027.6 11.8
2014-Jul-21 18:30N 47°60' W 157°32'0 0.0 1027.4 11.8
2014-Jul-21 17:30N 47°60' W 157°32'1 0.9 1027.2 11.8
2014-Jul-21 16:30N 47°59' W 157°32'1 0.8 1026.9 11.8
2014-Jul-21 15:30N 47°59' W 157°33'2 0.6 1027.0 11.8
2014-Jul-21 12:30N 47°58' W 157°31'2 1.1 1026.1 11.8
2014-Jul-21 10:30N 47°59' W 157°29'0 0.0 1025.7 11.9
2014-Jul-21 09:30N 47°59' W 157°29'1 0.5 1025.3 11.9
2014-Jul-21 07:30N 47°60' W 157°30'2 0.4 1026.0 12.0
2014-Jul-21 02:30N 48°00' W 157°33'1 1.0 1025.6 12.0
2014-Jul-21 01:30N 47°59' W 157°33'1 0.6 1025.7 12.0
2014-Jul-21 00:30N 47°59' W 157°33'1 0.6 1026.0 12.0
2014-Jul-20 22:30N 47°57' W 157°33'2 0.3 1026.1 12.1
2014-Jul-20 17:30N 47°59' W 157°31'2 1.6 1025.6 12.1
2014-Jul-20 16:30N 47°60' W 157°33'0 0.0 1025.3 12.1
2014-Jul-20 15:30N 47°60' W 157°33'0 0.2 1025.4 12.1
2014-Jul-20 14:30N 47°60' W 157°32'1 1.5 1025.3 12.1
2014-Jul-20 13:30N 47°58' W 157°33'0 0.0 1025.3 12.1
2014-Jul-20 12:40N 47°58' W 157°33'0 0.0 850.0 -5.0
2014-Jul-20 10:30N 47°58' W 157°33'0 0.1 1025.5 12.5
2014-Jul-20 07:30N 47°58' W 157°33'1 0.2 1025.3 12.8
2014-Jul-20 04:30N 47°58' W 157°32'0 0.0 1024.2 13.0
2014-Jul-20 03:30N 47°58' W 157°32'2 0.3 1024.2 13.0
2014-Jul-19 22:30N 47°58' W 157°30'2 1.7 1023.9 12.0
2014-Jul-19 21:30N 47°59' W 157°33'2 0.8 1023.9 11.6
2014-Jul-19 19:30N 47°58' W 157°34'2 0.3 1023.2 11.4
2014-Jul-19 14:30N 47°57' W 157°35'1 0.7 1020.6 11.3
2014-Jul-19 13:30N 47°56' W 157°34'1 0.8 1020.4 11.3
2014-Jul-19 12:30N 47°57' W 157°33'3 0.4 1020.5 11.3
2014-Jul-19 06:30N 47°59' W 157°32'1 1.3 1020.5 11.3
2014-Jul-19 05:30N 47°59' W 157°34'0 0.0 1020.9 11.4
2014-Jul-19 04:30N 47°59' W 157°34'1 0.5 1021.4 11.5
2014-Jul-19 03:30N 47°59' W 157°34'2 0.7 1021.4 11.6
2014-Jul-19 00:30N 47°57' W 157°36'1 1.2 1022.5 11.6
2014-Jul-18 23:30N 47°56' W 157°35'0 0.0 1022.8 11.5
2014-Jul-18 22:30N 47°56' W 157°35'2 2.4 1022.8 11.4
2014-Jul-18 21:30N 47°55' W 157°32'0 0.1 1022.6 11.3
2014-Jul-18 19:30N 47°55' W 157°32'1 1.1 1022.0 11.2
2014-Jul-18 18:30N 47°57' W 157°32'1 0.6 1021.6 11.2
2014-Jul-18 16:30N 47°58' W 157°31'1 0.9 1021.4 11.2
2014-Jul-18 15:30N 47°58' W 157°32'1 0.5 1020.1 11.2
2014-Jul-18 14:30N 47°58' W 157°33'0 0.0 1019.9 11.2
2014-Jul-18 13:30N 47°58' W 157°33'3 0.6 1019.0 11.2
2014-Jul-18 08:30N 47°56' W 157°37'1 0.6 1018.8 11.2
2014-Jul-18 06:30N 47°56' W 157°35'   1017.2 11.2
Track history (hours):
 
Tides and Currents Weather Stations Pressure Air Temp Water Temp Dewpoint Dewpoint Depression Visibility Wind Speed Wind Dir Waves Ship Positions

Drifting buoy 46928

Last reported at 2014-Jul-28 06:30 UTC. Time now 2014-Jul-28 08:29 UTC.
Position N 47°54' W 157°26'.

Barometer 1023.5 mb
Water temperature 12.4 ° C

Date/timePositionNaut miles runAvg speedWind from/ knotsBaromVisibWave heightAir tempDewpointWater temp
2014-Jul-28 06:30N 47°54' W 157°26'1 0.3 1023.5 12.4
2014-Jul-28 03:30N 47°54' W 157°25'0 0.5 1022.6 12.4
2014-Jul-28 02:30N 47°54' W 157°25'0 0.0 1022.5 12.4
2014-Jul-28 01:30N 47°54' W 157°25'1 1.4 1022.5 12.4
2014-Jul-28 00:30N 47°55' W 157°23'2 1.6 1022.3 12.4
2014-Jul-27 23:30N 47°55' W 157°25'1 1.0 1022.5 12.4
2014-Jul-27 22:30N 47°55' W 157°26'1 0.3 1022.6 12.4
2014-Jul-27 19:30N 47°55' W 157°27'1 0.2 1022.5 12.3
2014-Jul-27 16:30N 47°54' W 157°28'0 0.2 1021.9 12.3
2014-Jul-27 15:30N 47°54' W 157°27'0 0.4 1021.7 12.3
2014-Jul-27 14:30N 47°54' W 157°27'1 0.9 1021.5 12.3
2014-Jul-27 13:30N 47°54' W 157°26'1 0.3 1021.4 12.3
2014-Jul-27 09:30N 47°55' W 157°26'0 0.2 1021.5 12.3
2014-Jul-27 08:30N 47°55' W 157°26'0 0.5 1021.7 12.3
2014-Jul-27 07:30N 47°55' W 157°26'0 0.3 1021.5 12.3
2014-Jul-27 06:30N 47°55' W 157°26'2 0.9 1021.0 12.3
2014-Jul-27 04:30N 47°55' W 157°28'1 0.2 1020.6 12.3
2014-Jul-27 01:30N 47°55' W 157°28'0 0.4 1020.8 12.4
2014-Jul-27 00:30N 47°56' W 157°27'1 0.4 1020.7 12.4
2014-Jul-26 22:30N 47°55' W 157°28'1 0.2 1020.7 12.3
2014-Jul-26 16:40N 47°55' W 157°27'1 0.9 850.0 -5.0
2014-Jul-26 15:30N 47°56' W 157°25'2 2.1 1019.9 12.1
2014-Jul-26 14:30N 47°56' W 157°28'1 0.8 1020.0 12.1
2014-Jul-26 13:30N 47°56' W 157°27'1 0.6 1019.9 12.1
2014-Jul-26 11:30N 47°56' W 157°29'1 0.2 1020.5 12.1
2014-Jul-26 07:30N 47°55' W 157°28'0 0.1 1020.8 12.2
2014-Jul-26 06:30N 47°55' W 157°28'1 0.5 1020.5 12.2
2014-Jul-26 03:30N 47°54' W 157°27'1 0.5 1020.4 12.2
2014-Jul-26 01:30N 47°55' W 157°26'1 0.7 1020.7 12.2
2014-Jul-26 00:30N 47°55' W 157°26'1 0.6 1021.0 12.2
2014-Jul-25 22:30N 47°57' W 157°26'1 0.7 1021.4 12.0
2014-Jul-25 21:30N 47°57' W 157°27'2 0.8 1021.5 12.0
2014-Jul-25 19:30N 47°56' W 157°29'0 0.0 1021.6 12.0
2014-Jul-25 18:30N 47°56' W 157°29'1 1.2 1021.8 12.0
2014-Jul-25 17:30N 47°55' W 157°30'1 0.5 1021.8 12.0
2014-Jul-25 15:30N 47°56' W 157°29'2 0.9 1022.1 12.0
2014-Jul-25 13:30N 47°55' W 157°27'3 1.4 1022.8 12.0
2014-Jul-25 11:30N 47°57' W 157°25'0 0.0 1023.4 12.0
2014-Jul-25 10:30N 47°57' W 157°25'0 0.1 1023.9 12.0
2014-Jul-25 08:30N 47°57' W 157°25'1 0.8 1024.2 12.0
2014-Jul-25 07:30N 47°58' W 157°26'1 0.4 1024.1 12.0
2014-Jul-25 03:30N 47°58' W 157°28'0 0.2 1025.0 12.1
2014-Jul-25 01:30N 47°58' W 157°27'0 0.0 1026.0 12.3
2014-Jul-25 00:30N 47°58' W 157°27'1 0.2 1026.4 12.3
2014-Jul-24 21:30N 47°58' W 157°27'1 0.4 1027.5 12.3
2014-Jul-24 19:30N 47°58' W 157°27'0 0.0 1028.1 12.3
2014-Jul-24 18:30N 47°58' W 157°27'1 1.0 1028.4 12.3
2014-Jul-24 17:30N 47°59' W 157°27'0 0.0 1028.7 12.3
2014-Jul-24 16:30N 47°59' W 157°27'0 0.2 1028.5 12.3
2014-Jul-24 14:30N 47°59' W 157°27'1 1.2 1029.0 12.4
2014-Jul-24 13:30N 47°59' W 157°28'1 0.6 1029.4 12.5
2014-Jul-24 11:30N 47°58' W 157°29'0 0.0 1030.0 12.6
2014-Jul-24 05:30N 47°58' W 157°29'1 0.4 1030.0 12.8
2014-Jul-24 02:30N 47°58' W 157°28'2 1.1 1030.0 12.8
2014-Jul-24 00:30N 47°59' W 157°26'0 0.1 1030.1 12.8
2014-Jul-23 23:30N 47°59' W 157°26'2 1.2 1030.5 12.8
2014-Jul-23 21:30N 48°01' W 157°28'2 0.4 1030.4 12.5
2014-Jul-23 16:30N 47°59' W 157°30'2 0.8 1029.5 12.4
2014-Jul-23 14:30N 47°58' W 157°29'1 1.0 1028.9 12.5
2014-Jul-23 13:30N 47°58' W 157°27'0 0.0 1028.8 12.5
2014-Jul-23 12:30N 47°58' W 157°27'3 0.5 1029.2 12.5
2014-Jul-23 07:30N 48°01' W 157°27'0 0.5 1029.9 12.7
2014-Jul-23 06:30N 48°01' W 157°27'1 0.7 1029.7 12.7
2014-Jul-23 04:30N 48°01' W 157°29'2 0.5 1029.7 12.7
2014-Jul-23 00:30N 47°59' W 157°29'1 0.6 1030.1 12.5
2014-Jul-22 23:30N 47°59' W 157°29'0 0.0 1030.2 12.4
2014-Jul-22 21:30N 47°59' W 157°29'1 1.1 1030.2 12.3
2014-Jul-22 20:30N 47°59' W 157°27'0 0.0 1029.9 12.2
2014-Jul-22 18:30N 47°59' W 157°27'0 0.2 1029.8 12.1
2014-Jul-22 16:30N 47°60' W 157°27'1 0.6 1029.0 12.0
2014-Jul-22 15:30N 47°60' W 157°28'1 0.3 1028.8 12.0
2014-Jul-22 13:30N 47°59' W 157°28'2 0.6 1028.1 12.1
2014-Jul-22 10:30N 47°60' W 157°31'2 0.2 1028.8 12.1
2014-Jul-22 03:30N 47°58' W 157°30'1 0.4 1028.0 12.3
2014-Jul-22 01:30N 47°59' W 157°29'3 0.6 1028.0 12.3
2014-Jul-21 20:30N 48°01' W 157°32'1 0.4 1027.6 11.8
2014-Jul-21 18:30N 47°60' W 157°32'0 0.0 1027.4 11.8
2014-Jul-21 17:30N 47°60' W 157°32'1 0.9 1027.2 11.8
2014-Jul-21 16:30N 47°59' W 157°32'1 0.8 1026.9 11.8
2014-Jul-21 15:30N 47°59' W 157°33'2 0.6 1027.0 11.8
2014-Jul-21 12:30N 47°58' W 157°31'2 1.1 1026.1 11.8
2014-Jul-21 10:30N 47°59' W 157°29'0 0.0 1025.7 11.9
2014-Jul-21 09:30N 47°59' W 157°29'1 0.5 1025.3 11.9
2014-Jul-21 07:30N 47°60' W 157°30'2 0.4 1026.0 12.0
2014-Jul-21 02:30N 48°00' W 157°33'1 1.0 1025.6 12.0
2014-Jul-21 01:30N 47°59' W 157°33'1 0.6 1025.7 12.0
2014-Jul-21 00:30N 47°59' W 157°33'1 0.6 1026.0 12.0
2014-Jul-20 22:30N 47°57' W 157°33'2 0.3 1026.1 12.1
2014-Jul-20 17:30N 47°59' W 157°31'2 1.6 1025.6 12.1
2014-Jul-20 16:30N 47°60' W 157°33'0 0.0 1025.3 12.1
2014-Jul-20 15:30N 47°60' W 157°33'0 0.2 1025.4 12.1
2014-Jul-20 14:30N 47°60' W 157°32'1 1.5 1025.3 12.1
2014-Jul-20 13:30N 47°58' W 157°33'0 0.0 1025.3 12.1
2014-Jul-20 12:40N 47°58' W 157°33'0 0.0 850.0 -5.0
2014-Jul-20 10:30N 47°58' W 157°33'0 0.1 1025.5 12.5
2014-Jul-20 07:30N 47°58' W 157°33'1 0.2 1025.3 12.8
2014-Jul-20 04:30N 47°58' W 157°32'0 0.0 1024.2 13.0
2014-Jul-20 03:30N 47°58' W 157°32'2 0.3 1024.2 13.0
2014-Jul-19 22:30N 47°58' W 157°30'2 1.7 1023.9 12.0
2014-Jul-19 21:30N 47°59' W 157°33'2 0.8 1023.9 11.6
2014-Jul-19 19:30N 47°58' W 157°34'2 0.3 1023.2 11.4
2014-Jul-19 14:30N 47°57' W 157°35'1 0.7 1020.6 11.3
2014-Jul-19 13:30N 47°56' W 157°34'1 0.8 1020.4 11.3
2014-Jul-19 12:30N 47°57' W 157°33'3 0.4 1020.5 11.3
2014-Jul-19 06:30N 47°59' W 157°32'1 1.3 1020.5 11.3
2014-Jul-19 05:30N 47°59' W 157°34'0 0.0 1020.9 11.4
2014-Jul-19 04:30N 47°59' W 157°34'1 0.5 1021.4 11.5
2014-Jul-19 03:30N 47°59' W 157°34'2 0.7 1021.4 11.6
2014-Jul-19 00:30N 47°57' W 157°36'1 1.2 1022.5 11.6
2014-Jul-18 23:30N 47°56' W 157°35'0 0.0 1022.8 11.5
2014-Jul-18 22:30N 47°56' W 157°35'2 2.4 1022.8 11.4
2014-Jul-18 21:30N 47°55' W 157°32'0 0.1 1022.6 11.3
2014-Jul-18 19:30N 47°55' W 157°32'1 1.1 1022.0 11.2
2014-Jul-18 18:30N 47°57' W 157°32'1 0.6 1021.6 11.2
2014-Jul-18 16:30N 47°58' W 157°31'1 0.9 1021.4 11.2
2014-Jul-18 15:30N 47°58' W 157°32'1 0.5 1020.1 11.2
2014-Jul-18 14:30N 47°58' W 157°33'0 0.0 1019.9 11.2
2014-Jul-18 13:30N 47°58' W 157°33'3 0.6 1019.0 11.2
2014-Jul-18 08:30N 47°56' W 157°37'1 0.6 1018.8 11.2
2014-Jul-18 06:30N 47°56' W 157°35'   1017.2 11.2

Dump ship's entire track history